sensor_id;sensor_type;location;lat;lon;timestamp;pressure;altitude;pressure_sealevel;temperature;humidity
4012;BME280;2020;48.682;9.024;2022-07-31T00:00:20;96714.25;;;17.49;62.75
4012;BME280;2020;48.682;9.024;2022-07-31T00:02:45;96714.09;;;17.58;62.50
4012;BME280;2020;48.682;9.024;2022-07-31T00:05:11;96705.34;;;17.50;62.54
4012;BME280;2020;48.682;9.024;2022-07-31T00:07:36;96705.66;;;17.34;63.17
4012;BME280;2020;48.682;9.024;2022-07-31T00:10:03;96704.88;;;17.33;63.18
4012;BME280;2020;48.682;9.024;2022-07-31T00:12:28;96707.91;;;17.37;63.21
4012;BME280;2020;48.682;9.024;2022-07-31T00:14:54;96704.28;;;17.38;63.26
4012;BME280;2020;48.682;9.024;2022-07-31T00:17:19;96698.38;;;17.36;62.93
4012;BME280;2020;48.682;9.024;2022-07-31T00:19:44;96698.78;;;17.33;63.98
4012;BME280;2020;48.682;9.024;2022-07-31T00:22:10;96703.25;;;17.32;63.68
4012;BME280;2020;48.682;9.024;2022-07-31T00:24:36;96703.66;;;17.36;63.31
4012;BME280;2020;48.682;9.024;2022-07-31T00:27:01;96698.69;;;17.19;63.87
4012;BME280;2020;48.682;9.024;2022-07-31T00:29:28;96697.06;;;17.18;64.07
4012;BME280;2020;48.682;9.024;2022-07-31T00:31:54;96698.31;;;17.22;64.31
4012;BME280;2020;48.682;9.024;2022-07-31T00:34:21;96694.28;;;17.27;64.01
4012;BME280;2020;48.682;9.024;2022-07-31T00:36:46;96689.47;;;17.30;64.19
4012;BME280;2020;48.682;9.024;2022-07-31T00:39:11;96695.13;;;17.34;64.11
4012;BME280;2020;48.682;9.024;2022-07-31T00:41:44;96689.88;;;17.34;64.15
4012;BME280;2020;48.682;9.024;2022-07-31T00:44:10;96695.84;;;17.21;64.31
4012;BME280;2020;48.682;9.024;2022-07-31T00:46:36;96687.78;;;17.22;63.84
4012;BME280;2020;48.682;9.024;2022-07-31T00:49:02;96684.16;;;17.23;64.14
4012;BME280;2020;48.682;9.024;2022-07-31T00:51:27;96680.28;;;17.19;64.44
4012;BME280;2020;48.682;9.024;2022-07-31T00:53:53;96684.78;;;17.25;64.26
4012;BME280;2020;48.682;9.024;2022-07-31T00:56:18;96682.59;;;17.29;64.51
4012;BME280;2020;48.682;9.024;2022-07-31T00:58:43;96680.50;;;17.24;65.01
4012;BME280;2020;48.682;9.024;2022-07-31T01:01:09;96681.28;;;17.18;64.84
4012;BME280;2020;48.682;9.024;2022-07-31T01:03:34;96681.28;;;17.18;64.69
4012;BME280;2020;48.682;9.024;2022-07-31T01:05:59;96680.66;;;17.16;65.40
4012;BME280;2020;48.682;9.024;2022-07-31T01:08:25;96691.31;;;17.08;65.39
4012;BME280;2020;48.682;9.024;2022-07-31T01:10:57;96689.31;;;17.10;65.34
4012;BME280;2020;48.682;9.024;2022-07-31T01:13:32;96689.19;;;16.96;65.46
4012;BME280;2020;48.682;9.024;2022-07-31T01:16:00;96692.34;;;16.85;65.30
4012;BME280;2020;48.682;9.024;2022-07-31T01:18:29;96695.13;;;16.84;65.42
4012;BME280;2020;48.682;9.024;2022-07-31T01:20:57;96695.22;;;16.90;66.23
4012;BME280;2020;48.682;9.024;2022-07-31T01:23:41;96698.22;;;16.87;66.14
4012;BME280;2020;48.682;9.024;2022-07-31T01:29:12;96690.72;;;16.84;66.01
4012;BME280;2020;48.682;9.024;2022-07-31T01:31:44;96691.47;;;16.78;66.48
4012;BME280;2020;48.682;9.024;2022-07-31T01:34:24;96696.72;;;16.78;66.34
4012;BME280;2020;48.682;9.024;2022-07-31T01:37:05;96693.47;;;16.76;66.05
4012;BME280;2020;48.682;9.024;2022-07-31T01:39:34;96693.59;;;16.67;67.02
4012;BME280;2020;48.682;9.024;2022-07-31T01:42:03;96694.97;;;16.63;67.17
4012;BME280;2020;48.682;9.024;2022-07-31T01:44:34;96693.34;;;16.62;67.06
4012;BME280;2020;48.682;9.024;2022-07-31T01:47:04;96698.47;;;16.71;66.79
4012;BME280;2020;48.682;9.024;2022-07-31T01:49:30;96695.84;;;16.71;66.91
4012;BME280;2020;48.682;9.024;2022-07-31T01:51:58;96690.78;;;16.47;67.40
4012;BME280;2020;48.682;9.024;2022-07-31T01:54:25;96687.94;;;16.49;67.49
4012;BME280;2020;48.682;9.024;2022-07-31T01:56:51;96686.06;;;16.43;67.40
4012;BME280;2020;48.682;9.024;2022-07-31T01:59:17;96685.66;;;16.39;67.86
4012;BME280;2020;48.682;9.024;2022-07-31T02:01:44;96694.78;;;16.43;68.05
4012;BME280;2020;48.682;9.024;2022-07-31T02:04:12;96693.56;;;16.46;67.93
4012;BME280;2020;48.682;9.024;2022-07-31T02:06:38;96695.06;;;16.33;67.91
4012;BME280;2020;48.682;9.024;2022-07-31T02:09:04;96703.91;;;16.26;68.38
4012;BME280;2020;48.682;9.024;2022-07-31T02:11:30;96702.28;;;16.10;69.15
4012;BME280;2020;48.682;9.024;2022-07-31T02:13:56;96699.31;;;16.13;68.75
4012;BME280;2020;48.682;9.024;2022-07-31T02:16:22;96695.69;;;16.14;68.85
4012;BME280;2020;48.682;9.024;2022-07-31T02:18:50;96703.56;;;16.14;68.89
4012;BME280;2020;48.682;9.024;2022-07-31T02:21:17;96702.94;;;16.12;69.43
4012;BME280;2020;48.682;9.024;2022-07-31T02:23:42;96703.38;;;16.15;69.05
4012;BME280;2020;48.682;9.024;2022-07-31T02:26:07;96699.31;;;16.13;69.10
4012;BME280;2020;48.682;9.024;2022-07-31T02:28:36;96695.63;;;15.92;68.80
4012;BME280;2020;48.682;9.024;2022-07-31T02:31:02;96694.19;;;15.74;70.05
4012;BME280;2020;48.682;9.024;2022-07-31T02:33:29;96683.69;;;15.74;70.07
4012;BME280;2020;48.682;9.024;2022-07-31T02:35:57;96693.97;;;15.76;69.97
4012;BME280;2020;48.682;9.024;2022-07-31T02:38:25;96685.94;;;15.77;69.95
4012;BME280;2020;48.682;9.024;2022-07-31T02:40:53;96691.19;;;15.77;69.95
4012;BME280;2020;48.682;9.024;2022-07-31T02:43:20;96682.41;;;15.70;70.17
4012;BME280;2020;48.682;9.024;2022-07-31T02:45:47;96679.78;;;15.70;70.10
4012;BME280;2020;48.682;9.024;2022-07-31T02:48:12;96680.16;;;15.67;70.44
4012;BME280;2020;48.682;9.024;2022-07-31T02:50:38;96680.53;;;15.64;70.03
4012;BME280;2020;48.682;9.024;2022-07-31T02:53:04;96670.84;;;15.64;70.23
4012;BME280;2020;48.682;9.024;2022-07-31T02:55:30;96673.28;;;15.66;70.25
4012;BME280;2020;48.682;9.024;2022-07-31T02:57:55;96678.53;;;15.66;70.55
4012;BME280;2020;48.682;9.024;2022-07-31T03:00:21;96681.78;;;15.68;70.00
4012;BME280;2020;48.682;9.024;2022-07-31T03:02:48;96674.81;;;15.60;70.00
4012;BME280;2020;48.682;9.024;2022-07-31T03:05:14;96680.25;;;15.59;70.93
4012;BME280;2020;48.682;9.024;2022-07-31T03:07:40;96674.81;;;15.60;70.69
4012;BME280;2020;48.682;9.024;2022-07-31T03:10:05;96677.53;;;15.52;70.68
4012;BME280;2020;48.682;9.024;2022-07-31T03:12:31;96681.97;;;15.52;70.73
4012;BME280;2020;48.682;9.024;2022-07-31T03:14:56;96675.84;;;15.44;70.98
4012;BME280;2020;48.682;9.024;2022-07-31T03:17:22;96687.13;;;15.30;70.86
4012;BME280;2020;48.682;9.024;2022-07-31T03:19:48;96689.13;;;15.28;70.99
4012;BME280;2020;48.682;9.024;2022-07-31T03:22:13;96690.13;;;15.27;70.56
4012;BME280;2020;48.682;9.024;2022-07-31T03:24:39;96687.72;;;15.02;71.29
4012;BME280;2020;48.682;9.024;2022-07-31T03:27:04;96689.34;;;15.03;71.51
4012;BME280;2020;48.682;9.024;2022-07-31T03:29:37;96693.16;;;15.15;70.81
4012;BME280;2020;48.682;9.024;2022-07-31T03:32:02;96682.09;;;15.05;71.58
4012;BME280;2020;48.682;9.024;2022-07-31T03:34:28;96683.38;;;15.09;71.60
4012;BME280;2020;48.682;9.024;2022-07-31T03:36:53;96680.13;;;15.07;71.18
4012;BME280;2020;48.682;9.024;2022-07-31T03:39:18;96687.00;;;15.08;71.43
4012;BME280;2020;48.682;9.024;2022-07-31T03:41:45;96681.03;;;15.14;70.73
4012;BME280;2020;48.682;9.024;2022-07-31T03:44:10;96685.00;;;15.10;71.00
4012;BME280;2020;48.682;9.024;2022-07-31T03:46:36;96686.91;;;15.16;71.51
4012;BME280;2020;48.682;9.024;2022-07-31T03:49:02;96674.63;;;15.17;71.27
4012;BME280;2020;48.682;9.024;2022-07-31T03:51:28;96681.03;;;15.14;71.34
4012;BME280;2020;48.682;9.024;2022-07-31T03:53:53;96675.03;;;14.90;71.99
4012;BME280;2020;48.682;9.024;2022-07-31T03:56:19;96676.66;;;14.91;71.78
4012;BME280;2020;48.682;9.024;2022-07-31T03:58:45;96680.75;;;14.94;71.54
4012;BME280;2020;48.682;9.024;2022-07-31T04:01:10;96683.88;;;14.89;71.90
4012;BME280;2020;48.682;9.024;2022-07-31T04:03:36;96676.31;;;14.95;71.90
4012;BME280;2020;48.682;9.024;2022-07-31T04:06:02;96685.53;;;14.90;71.64
4012;BME280;2020;48.682;9.024;2022-07-31T04:08:27;96682.25;;;14.88;71.67
4012;BME280;2020;48.682;9.024;2022-07-31T04:10:52;96686.59;;;14.81;71.97
4012;BME280;2020;48.682;9.024;2022-07-31T04:13:18;96682.97;;;14.82;71.43
4012;BME280;2020;48.682;9.024;2022-07-31T04:15:43;96686.94;;;14.78;72.54
4012;BME280;2020;48.682;9.024;2022-07-31T04:18:09;96683.03;;;14.74;72.08
4012;BME280;2020;48.682;9.024;2022-07-31T04:20:34;96687.97;;;14.69;72.11
4012;BME280;2020;48.682;9.024;2022-07-31T04:22:59;96689.28;;;14.73;72.36
4012;BME280;2020;48.682;9.024;2022-07-31T04:25:24;96680.53;;;14.81;72.14
4012;BME280;2020;48.682;9.024;2022-07-31T04:27:50;96685.06;;;14.87;71.71
4012;BME280;2020;48.682;9.024;2022-07-31T04:30:15;96684.59;;;14.83;71.97
4012;BME280;2020;48.682;9.024;2022-07-31T04:32:40;96686.94;;;14.78;72.34
4012;BME280;2020;48.682;9.024;2022-07-31T04:35:06;96697.41;;;14.78;71.90
4012;BME280;2020;48.682;9.024;2022-07-31T04:37:32;96695.63;;;14.79;71.54
4012;BME280;2020;48.682;9.024;2022-07-31T04:39:57;96687.41;;;14.82;71.31
4012;BME280;2020;48.682;9.024;2022-07-31T04:42:22;96692.09;;;14.86;71.73
4012;BME280;2020;48.682;9.024;2022-07-31T04:44:48;96697.53;;;14.85;71.46
4012;BME280;2020;48.682;9.024;2022-07-31T04:47:13;96694.38;;;14.89;71.95
4012;BME280;2020;48.682;9.024;2022-07-31T04:49:38;96704.16;;;14.96;70.79
4012;BME280;2020;48.682;9.024;2022-07-31T04:52:04;96701.00;;;15.00;71.35
4012;BME280;2020;48.682;9.024;2022-07-31T04:54:31;96702.19;;;15.13;70.30
4012;BME280;2020;48.682;9.024;2022-07-31T04:56:56;96708.53;;;15.18;70.26
4012;BME280;2020;48.682;9.024;2022-07-31T04:59:22;96710.50;;;15.16;70.68
4012;BME280;2020;48.682;9.024;2022-07-31T05:01:48;96702.91;;;15.21;71.28
4012;BME280;2020;48.682;9.024;2022-07-31T05:04:15;96703.03;;;15.28;71.23
4012;BME280;2020;48.682;9.024;2022-07-31T05:06:42;96712.72;;;15.28;70.79
4012;BME280;2020;48.682;9.024;2022-07-31T05:09:11;96709.66;;;15.39;70.46
4012;BME280;2020;48.682;9.024;2022-07-31T05:11:40;96706.41;;;15.37;70.43
4012;BME280;2020;48.682;9.024;2022-07-31T05:14:07;96706.03;;;15.40;71.52
4012;BME280;2020;48.682;9.024;2022-07-31T05:16:33;96706.94;;;15.47;71.83
4012;BME280;2020;48.682;9.024;2022-07-31T05:18:59;96699.63;;;15.58;70.95
4012;BME280;2020;48.682;9.024;2022-07-31T05:21:25;96697.16;;;15.71;70.08
4012;BME280;2020;48.682;9.024;2022-07-31T05:23:58;96691.56;;;15.74;70.93
4012;BME280;2020;48.682;9.024;2022-07-31T05:26:23;96698.34;;;15.84;71.27
4012;BME280;2020;48.682;9.024;2022-07-31T05:28:50;96699.88;;;15.93;71.46
4012;BME280;2020;48.682;9.024;2022-07-31T05:31:17;96703.94;;;16.11;70.33
4012;BME280;2020;48.682;9.024;2022-07-31T05:33:43;96696.03;;;16.11;67.69
4012;BME280;2020;48.682;9.024;2022-07-31T05:36:09;96695.31;;;16.17;68.71
4012;BME280;2020;48.682;9.024;2022-07-31T05:38:34;96703.06;;;16.25;69.40
4012;BME280;2020;48.682;9.024;2022-07-31T05:40:59;96703.59;;;16.35;69.06
4012;BME280;2020;48.682;9.024;2022-07-31T05:43:25;96692.78;;;16.45;68.43
4012;BME280;2020;48.682;9.024;2022-07-31T05:45:50;96699.34;;;16.56;67.73
4012;BME280;2020;48.682;9.024;2022-07-31T05:48:16;96697.41;;;16.65;69.14
4012;BME280;2020;48.682;9.024;2022-07-31T05:50:42;96692.72;;;16.60;66.83
4012;BME280;2020;48.682;9.024;2022-07-31T05:53:08;96708.13;;;16.63;67.04
4012;BME280;2020;48.682;9.024;2022-07-31T05:55:36;96705.13;;;16.66;65.99
4012;BME280;2020;48.682;9.024;2022-07-31T05:58:01;96706.78;;;16.74;66.58
4012;BME280;2020;48.682;9.024;2022-07-31T06:00:26;96699.97;;;16.80;66.87
4012;BME280;2020;48.682;9.024;2022-07-31T06:02:52;96700.84;;;16.87;66.25
4012;BME280;2020;48.682;9.024;2022-07-31T06:05:17;96695.59;;;16.87;66.74
4012;BME280;2020;48.682;9.024;2022-07-31T06:07:43;96708.25;;;16.99;66.71
4012;BME280;2020;48.682;9.024;2022-07-31T06:10:10;96706.88;;;17.03;66.00
4012;BME280;2020;48.682;9.024;2022-07-31T06:12:35;96714.75;;;17.03;65.15
4012;BME280;2020;48.682;9.024;2022-07-31T06:15:00;96716.25;;;17.12;65.52
4012;BME280;2020;48.682;9.024;2022-07-31T06:17:26;96707.13;;;17.15;65.95
4012;BME280;2020;48.682;9.024;2022-07-31T06:19:51;96715.25;;;17.20;66.36
4012;BME280;2020;48.682;9.024;2022-07-31T06:22:16;96721.81;;;17.31;65.24
4012;BME280;2020;48.682;9.024;2022-07-31T06:24:41;96720.19;;;17.30;65.20
4012;BME280;2020;48.682;9.024;2022-07-31T06:27:07;96720.25;;;17.36;64.77
4012;BME280;2020;48.682;9.024;2022-07-31T06:29:32;96715.03;;;17.43;64.77
4012;BME280;2020;48.682;9.024;2022-07-31T06:31:58;96712.88;;;17.53;64.91
4012;BME280;2020;48.682;9.024;2022-07-31T06:34:23;96713.47;;;17.56;62.46
4012;BME280;2020;48.682;9.024;2022-07-31T06:36:49;96718.41;;;17.65;62.91
4012;BME280;2020;48.682;9.024;2022-07-31T06:39:15;96720.06;;;17.73;62.66
4012;BME280;2020;48.682;9.024;2022-07-31T06:41:40;96724.75;;;17.84;61.47
4012;BME280;2020;48.682;9.024;2022-07-31T06:44:12;96725.03;;;17.90;63.59
4012;BME280;2020;48.682;9.024;2022-07-31T06:46:37;96720.84;;;18.02;63.76
4012;BME280;2020;48.682;9.024;2022-07-31T06:49:03;96724.72;;;18.13;60.74
4012;BME280;2020;48.682;9.024;2022-07-31T06:51:29;96719.50;;;18.20;60.83
4012;BME280;2020;48.682;9.024;2022-07-31T06:53:54;96714.03;;;18.28;60.89
4012;BME280;2020;48.682;9.024;2022-07-31T06:56:20;96715.09;;;18.40;60.44
4012;BME280;2020;48.682;9.024;2022-07-31T06:58:45;96722.38;;;18.45;61.76
4012;BME280;2020;48.682;9.024;2022-07-31T07:01:11;96716.13;;;18.53;59.99
4012;BME280;2020;48.682;9.024;2022-07-31T07:03:36;96713.91;;;18.63;60.63
4012;BME280;2020;48.682;9.024;2022-07-31T07:06:01;96711.09;;;18.71;59.85
4012;BME280;2020;48.682;9.024;2022-07-31T07:08:27;96711.50;;;18.82;60.72
4012;BME280;2020;48.682;9.024;2022-07-31T07:10:53;96707.47;;;18.99;59.45
4012;BME280;2020;48.682;9.024;2022-07-31T07:13:18;96707.88;;;19.23;57.35
4012;BME280;2020;48.682;9.024;2022-07-31T07:15:44;96703.81;;;19.41;55.86
4012;BME280;2020;48.682;9.024;2022-07-31T07:18:10;96705.81;;;19.52;56.79
4012;BME280;2020;48.682;9.024;2022-07-31T07:20:35;96712.66;;;19.67;55.92
4012;BME280;2020;48.682;9.024;2022-07-31T07:23:01;96706.75;;;19.78;53.84
4012;BME280;2020;48.682;9.024;2022-07-31T07:25:26;96702.88;;;19.94;52.48
4012;BME280;2020;48.682;9.024;2022-07-31T07:27:51;96703.97;;;20.19;55.36
4012;BME280;2020;48.682;9.024;2022-07-31T07:30:17;96710.19;;;20.31;53.38
4012;BME280;2020;48.682;9.024;2022-07-31T07:32:43;96709.06;;;20.52;51.63
4012;BME280;2020;48.682;9.024;2022-07-31T07:35:08;96707.91;;;20.80;51.17
4012;BME280;2020;48.682;9.024;2022-07-31T07:37:38;96701.44;;;21.01;52.23
4012;BME280;2020;48.682;9.024;2022-07-31T07:40:03;96704.59;;;21.10;52.76
4012;BME280;2020;48.682;9.024;2022-07-31T07:42:29;96704.75;;;21.15;49.01
4012;BME280;2020;48.682;9.024;2022-07-31T07:44:54;96704.56;;;21.17;50.85
4012;BME280;2020;48.682;9.024;2022-07-31T07:47:19;96708.56;;;21.26;51.96
4012;BME280;2020;48.682;9.024;2022-07-31T07:49:45;96704.44;;;21.30;50.89
4012;BME280;2020;48.682;9.024;2022-07-31T07:52:10;96702.81;;;21.29;49.34
4012;BME280;2020;48.682;9.024;2022-07-31T07:54:35;96696.72;;;21.29;48.69
4012;BME280;2020;48.682;9.024;2022-07-31T07:57:00;96693.66;;;21.32;47.45
4012;BME280;2020;48.682;9.024;2022-07-31T07:59:26;96690.91;;;21.39;49.00
4012;BME280;2020;48.682;9.024;2022-07-31T08:01:51;96693.44;;;21.52;48.10
4012;BME280;2020;48.682;9.024;2022-07-31T08:04:16;96688.31;;;21.95;46.94
4012;BME280;2020;48.682;9.024;2022-07-31T08:06:41;96690.81;;;21.89;45.86
4012;BME280;2020;48.682;9.024;2022-07-31T08:09:07;96693.25;;;21.91;47.02
4012;BME280;2020;48.682;9.024;2022-07-31T08:11:33;96689.03;;;22.02;46.93
4012;BME280;2020;48.682;9.024;2022-07-31T08:13:58;96687.59;;;22.18;46.15
4012;BME280;2020;48.682;9.024;2022-07-31T08:16:23;96686.09;;;22.10;47.41
4012;BME280;2020;48.682;9.024;2022-07-31T08:18:49;96686.75;;;22.05;46.00
4012;BME280;2020;48.682;9.024;2022-07-31T08:21:16;96689.31;;;22.12;46.20
4012;BME280;2020;48.682;9.024;2022-07-31T08:23:41;96692.97;;;22.42;45.76
4012;BME280;2020;48.682;9.024;2022-07-31T08:26:06;96689.88;;;22.75;44.17
4012;BME280;2020;48.682;9.024;2022-07-31T08:28:35;96692.81;;;23.10;43.82
4012;BME280;2020;48.682;9.024;2022-07-31T08:31:01;96690.25;;;23.15;42.81
4012;BME280;2020;48.682;9.024;2022-07-31T08:33:26;96699.31;;;23.38;44.16
4012;BME280;2020;48.682;9.024;2022-07-31T08:35:51;96689.34;;;23.69;41.55
4012;BME280;2020;48.682;9.024;2022-07-31T08:38:17;96685.19;;;23.73;39.57
4012;BME280;2020;48.682;9.024;2022-07-31T08:40:43;96685.25;;;23.90;39.79
4012;BME280;2020;48.682;9.024;2022-07-31T08:43:10;96680.22;;;24.17;40.70
4012;BME280;2020;48.682;9.024;2022-07-31T08:45:35;96683.91;;;24.45;41.01
4012;BME280;2020;48.682;9.024;2022-07-31T08:48:02;96683.41;;;24.77;38.32
4012;BME280;2020;48.682;9.024;2022-07-31T08:50:30;96683.25;;;25.01;39.68
4012;BME280;2020;48.682;9.024;2022-07-31T08:52:56;96683.69;;;25.32;38.97
4012;BME280;2020;48.682;9.024;2022-07-31T08:55:23;96684.50;;;25.50;38.66
4012;BME280;2020;48.682;9.024;2022-07-31T08:57:48;96683.22;;;25.52;37.32
4012;BME280;2020;48.682;9.024;2022-07-31T09:00:14;96674.59;;;25.67;37.29
4012;BME280;2020;48.682;9.024;2022-07-31T09:02:42;96673.38;;;25.75;37.00
4012;BME280;2020;48.682;9.024;2022-07-31T09:05:08;96672.25;;;25.93;35.51
4012;BME280;2020;48.682;9.024;2022-07-31T09:07:34;96667.09;;;26.09;36.39
4012;BME280;2020;48.682;9.024;2022-07-31T09:09:59;96671.88;;;26.07;34.91
4012;BME280;2020;48.682;9.024;2022-07-31T09:12:30;96672.81;;;25.95;35.65
4012;BME280;2020;48.682;9.024;2022-07-31T09:14:56;96666.72;;;26.22;36.12
4012;BME280;2020;48.682;9.024;2022-07-31T09:17:34;96662.28;;;25.83;35.28
4012;BME280;2020;48.682;9.024;2022-07-31T09:20:01;96662.53;;;25.43;36.24
4012;BME280;2020;48.682;9.024;2022-07-31T09:22:28;96667.72;;;25.49;36.98
4012;BME280;2020;48.682;9.024;2022-07-31T09:25:08;96653.03;;;25.91;37.60
4012;BME280;2020;48.682;9.024;2022-07-31T09:27:36;96660.72;;;26.37;36.89
4012;BME280;2020;48.682;9.024;2022-07-31T09:30:01;96656.72;;;26.35;37.06
4012;BME280;2020;48.682;9.024;2022-07-31T09:32:28;96656.88;;;26.55;35.73
4012;BME280;2020;48.682;9.024;2022-07-31T09:34:53;96659.41;;;26.40;34.94
4012;BME280;2020;48.682;9.024;2022-07-31T09:37:20;96652.16;;;26.08;35.77
4012;BME280;2020;48.682;9.024;2022-07-31T09:39:50;96656.50;;;26.41;36.20
4012;BME280;2020;48.682;9.024;2022-07-31T09:42:17;96652.47;;;27.04;35.93
4012;BME280;2020;48.682;9.024;2022-07-31T09:44:44;96656.69;;;27.38;33.44
4012;BME280;2020;48.682;9.024;2022-07-31T09:50:21;96652.22;;;26.73;34.79
4012;BME280;2020;48.682;9.024;2022-07-31T09:52:56;96642.31;;;26.36;35.18
4012;BME280;2020;48.682;9.024;2022-07-31T09:55:22;96653.59;;;26.43;35.30
4012;BME280;2020;48.682;9.024;2022-07-31T09:57:55;96644.88;;;26.85;34.82
4012;BME280;2020;48.682;9.024;2022-07-31T10:00:22;96634.84;;;26.65;34.54
4012;BME280;2020;48.682;9.024;2022-07-31T10:02:48;96644.53;;;26.44;34.33
4012;BME280;2020;48.682;9.024;2022-07-31T10:05:14;96639.78;;;25.96;35.08
4012;BME280;2020;48.682;9.024;2022-07-31T10:07:40;96630.81;;;26.35;34.99
4012;BME280;2020;48.682;9.024;2022-07-31T10:10:07;96626.91;;;26.43;34.92
4012;BME280;2020;48.682;9.024;2022-07-31T10:12:34;96631.56;;;26.58;34.67
4012;BME280;2020;48.682;9.024;2022-07-31T10:15:06;96627.63;;;26.98;33.62
4012;BME280;2020;48.682;9.024;2022-07-31T10:17:35;96624.91;;;27.36;33.55
4012;BME280;2020;48.682;9.024;2022-07-31T10:20:05;96632.41;;;27.39;32.71
4012;BME280;2020;48.682;9.024;2022-07-31T10:22:38;96626.63;;;27.58;33.30
4012;BME280;2020;48.682;9.024;2022-07-31T10:25:08;96623.84;;;27.37;32.98
4012;BME280;2020;48.682;9.024;2022-07-31T10:27:37;96625.78;;;27.09;33.15
4012;BME280;2020;48.682;9.024;2022-07-31T10:30:05;96624.47;;;27.07;33.93
4012;BME280;2020;48.682;9.024;2022-07-31T10:32:30;96622.19;;;27.26;34.18
4012;BME280;2020;48.682;9.024;2022-07-31T10:34:56;96617.56;;;27.64;33.82
4012;BME280;2020;48.682;9.024;2022-07-31T10:37:32;96616.66;;;28.22;31.75
4012;BME280;2020;48.682;9.024;2022-07-31T10:40:08;96619.38;;;28.58;32.30
4012;BME280;2020;48.682;9.024;2022-07-31T10:42:46;96622.03;;;28.58;32.13
4012;BME280;2020;48.682;9.024;2022-07-31T10:45:14;96610.22;;;28.34;32.42
4012;BME280;2020;48.682;9.024;2022-07-31T10:47:54;96609.91;;;27.94;32.46
4012;BME280;2020;48.682;9.024;2022-07-31T10:50:25;96609.00;;;27.62;32.79
4012;BME280;2020;48.682;9.024;2022-07-31T10:52:51;96608.41;;;27.50;33.46
4012;BME280;2020;48.682;9.024;2022-07-31T10:55:18;96603.88;;;27.07;33.63
4012;BME280;2020;48.682;9.024;2022-07-31T10:57:46;96611.88;;;27.02;34.02
4012;BME280;2020;48.682;9.024;2022-07-31T11:00:14;96608.19;;;27.13;34.09
4012;BME280;2020;48.682;9.024;2022-07-31T11:02:43;96596.66;;;27.03;32.75
4012;BME280;2020;48.682;9.024;2022-07-31T11:05:10;96605.72;;;26.64;33.42
4012;BME280;2020;48.682;9.024;2022-07-31T11:07:38;96597.38;;;26.88;33.53
4012;BME280;2020;48.682;9.024;2022-07-31T11:10:10;96604.63;;;26.60;33.99
4012;BME280;2020;48.682;9.024;2022-07-31T11:12:35;96596.06;;;26.57;34.23
4012;BME280;2020;48.682;9.024;2022-07-31T11:15:01;96591.53;;;26.96;34.00
4012;BME280;2020;48.682;9.024;2022-07-31T11:17:33;96592.28;;;26.86;32.73
4012;BME280;2020;48.682;9.024;2022-07-31T11:20:00;96588.56;;;26.87;33.58
4012;BME280;2020;48.682;9.024;2022-07-31T11:22:26;96582.41;;;27.35;33.92
4012;BME280;2020;48.682;9.024;2022-07-31T11:24:54;96581.38;;;27.46;32.08
4012;BME280;2020;48.682;9.024;2022-07-31T11:27:32;96576.41;;;27.65;32.20
4012;BME280;2020;48.682;9.024;2022-07-31T11:30:07;96576.25;;;28.13;31.83
4012;BME280;2020;48.682;9.024;2022-07-31T11:32:33;96581.34;;;28.56;31.23
4012;BME280;2020;48.682;9.024;2022-07-31T11:34:58;96564.22;;;28.83;31.51
4012;BME280;2020;48.682;9.024;2022-07-31T11:37:26;96566.34;;;28.92;32.23
4012;BME280;2020;48.682;9.024;2022-07-31T11:39:53;96570.91;;;28.55;30.78
4012;BME280;2020;48.682;9.024;2022-07-31T11:42:21;96570.66;;;28.62;30.92
4012;BME280;2020;48.682;9.024;2022-07-31T11:44:47;96564.22;;;28.37;31.36
4012;BME280;2020;48.682;9.024;2022-07-31T11:47:12;96558.81;;;28.11;31.89
4012;BME280;2020;48.682;9.024;2022-07-31T11:49:37;96557.75;;;28.07;32.80
4012;BME280;2020;48.682;9.024;2022-07-31T11:52:05;96556.69;;;28.08;31.21
4012;BME280;2020;48.682;9.024;2022-07-31T11:54:32;96559.88;;;27.99;30.97
4012;BME280;2020;48.682;9.024;2022-07-31T11:56:57;96553.50;;;28.16;31.72
4012;BME280;2020;48.682;9.024;2022-07-31T11:59:34;96560.47;;;28.27;32.27
4012;BME280;2020;48.682;9.024;2022-07-31T12:02:08;96551.13;;;28.25;30.97
4012;BME280;2020;48.682;9.024;2022-07-31T12:04:34;96557.78;;;28.43;32.67
4012;BME280;2020;48.682;9.024;2022-07-31T12:07:04;96544.41;;;28.38;31.91
4012;BME280;2020;48.682;9.024;2022-07-31T12:09:30;96543.31;;;28.13;31.90
4012;BME280;2020;48.682;9.024;2022-07-31T12:11:56;96542.78;;;28.06;31.88
4012;BME280;2020;48.682;9.024;2022-07-31T12:14:31;96537.44;;;28.06;31.34
4012;BME280;2020;48.682;9.024;2022-07-31T12:16:57;96540.66;;;28.28;30.79
4012;BME280;2020;48.682;9.024;2022-07-31T12:19:26;96542.28;;;28.29;32.18
4012;BME280;2020;48.682;9.024;2022-07-31T12:21:52;96536.88;;;28.09;32.08
4012;BME280;2020;48.682;9.024;2022-07-31T12:24:17;96529.97;;;28.54;31.44
4012;BME280;2020;48.682;9.024;2022-07-31T12:26:54;96526.19;;;28.86;30.60
4012;BME280;2020;48.682;9.024;2022-07-31T12:29:49;96523.16;;;29.69;29.83
4012;BME280;2020;48.682;9.024;2022-07-31T12:32:23;96516.00;;;29.54;29.69
4012;BME280;2020;48.682;9.024;2022-07-31T12:34:59;96512.38;;;29.29;30.57
4012;BME280;2020;48.682;9.024;2022-07-31T12:37:25;96520.81;;;28.76;29.79
4012;BME280;2020;48.682;9.024;2022-07-31T12:39:52;96523.53;;;28.55;30.39
4012;BME280;2020;48.682;9.024;2022-07-31T12:42:25;96525.16;;;28.56;31.72
4012;BME280;2020;48.682;9.024;2022-07-31T12:44:52;96519.75;;;28.82;31.08
4012;BME280;2020;48.682;9.024;2022-07-31T12:47:22;96520.84;;;28.81;29.97
4012;BME280;2020;48.682;9.024;2022-07-31T12:49:48;96509.00;;;28.98;29.58
4012;BME280;2020;48.682;9.024;2022-07-31T12:52:14;96506.34;;;28.93;30.27
4012;BME280;2020;48.682;9.024;2022-07-31T12:54:39;96505.81;;;28.85;29.53
4012;BME280;2020;48.682;9.024;2022-07-31T12:57:05;96499.38;;;28.92;30.02
4012;BME280;2020;48.682;9.024;2022-07-31T12:59:30;96501.56;;;28.74;28.95
4012;BME280;2020;48.682;9.024;2022-07-31T13:01:55;96510.16;;;28.55;29.92
4012;BME280;2020;48.682;9.024;2022-07-31T13:04:21;96502.66;;;28.52;30.47
4012;BME280;2020;48.682;9.024;2022-07-31T13:06:47;96494.34;;;28.54;30.26
4012;BME280;2020;48.682;9.024;2022-07-31T13:09:12;96477.88;;;29.07;29.86
4012;BME280;2020;48.682;9.024;2022-07-31T13:11:38;96479.28;;;28.89;28.67
4012;BME280;2020;48.682;9.024;2022-07-31T13:14:03;96470.84;;;29.22;29.42
4012;BME280;2020;48.682;9.024;2022-07-31T13:16:28;96473.34;;;29.58;29.27
4012;BME280;2020;48.682;9.024;2022-07-31T13:18:53;96477.09;;;29.57;28.84
4012;BME280;2020;48.682;9.024;2022-07-31T13:21:19;96460.63;;;29.29;28.51
4012;BME280;2020;48.682;9.024;2022-07-31T13:23:44;96469.53;;;29.69;29.40
4012;BME280;2020;48.682;9.024;2022-07-31T13:26:09;96463.16;;;30.00;28.43